CheckWX is a tool to help pilots better visualize weather data.  It is not intended as a substitute for an official pre-flight weather briefing.

03:37:41 UTC

LEZG METAR
Zaragoza Air Base Airport
Zaragoza, Spain
Current

38 mins ago

LEZG 020300Z 28002KT 6000 FEW008 BKN011 BKN045 09/09 Q1012
Observed
Apr-2 @ 03:00 UTC
Wind
  • 280° at 2 KTS
Visibility
6003 meters
Flight Rules
MVFR
Cloud Levels
  • Few at 800' AGL
  • Broken at 1,100' AGL
  • Broken at 4,500' AGL
Temperature
C / 48°F
Dewpoint
C / 48°F
Humidity
100%
Altimeter
29.88" Hg
Pressure
1011.92 hPa
Previous

1 hour ago

LEZG 020230Z 25002KT 6000 FEW008 BKN016 BKN045 09/09 Q1012
Observed
Apr-2 @ 02:30 UTC
Wind
  • 250° at 2 KTS
Visibility
6003 meters
Flight Rules
MVFR
Cloud Levels
  • Few at 800' AGL
  • Broken at 1,600' AGL
  • Broken at 4,500' AGL
Temperature
C / 48°F
Dewpoint
C / 48°F
Humidity
100%
Altimeter
29.88" Hg
Pressure
1011.92 hPa
Previous

2 hours ago

LEZG 020200Z 24002KT 6000 FEW008 BKN016 BKN045 09/09 Q1012
Observed
Apr-2 @ 02:00 UTC
Wind
  • 240° at 2 KTS
Visibility
6003 meters
Flight Rules
MVFR
Cloud Levels
  • Few at 800' AGL
  • Broken at 1,600' AGL
  • Broken at 4,500' AGL
Temperature
C / 48°F
Dewpoint
C / 48°F
Humidity
100%
Altimeter
29.88" Hg
Pressure
1011.92 hPa